Jim Hamilton L.B. Owens Airport Columbia US
ICAO: KCUB
IATA: CUB
Category: Medium
Scheduled Services: No

Elevation: 193 ft
TransAlt. 18000 ft.

Airport Communications:
APP/DEP:133.4
ASOS:119.675
CLNC DEL:124.4
MIL OPS:122.8
ANDERSON RDO:114.7
CTAF/UNICOM:122.8

KCUB Zoom In..

If you have problems with the map follow the link
https://www.worldairports.se/pages/airport.php?
ICAO=KCUB

Runways:

(A) RW 13 length 5011 ft width 75 ft
LOC 110.90 / hdg 131

(B) RW 31 length 5011 ft width 75 ft
LOC 110.90 / hdg 311

Location; KCUB
Day. 20 / Time. 20.53 Zulu
* Altimeter: 30.18
* Temperature: 07° c. 44.6°f.
* Wind from: VRB° Speed 03 kn.
Dewpoint: 05° c.
Visibility: 4 Statute Miles.
Clouds: Overcast 400 ft.
Conditions: Mist.

KCUB 202053Z AUTO VRB03KT 4SM BR OVC004 07/05 A3018 RMK AO2 SLP221 T00670050 56010


Wind From VRB°
Speed 03 kn.

 
 
jpsmedia.com for Web Design worldairports.se 2019   terms of use